Brant — 5BBK2 — position and weather

sailwx.info

Track history (hours):
 
Tides and Currents Weather Stations Pressure Air Temp Water Temp Dewpoint Dewpoint Depression Visibility Wind Speed Wind Dir Waves Ship Positions

Brant

Last reported at 2017-May-15 04:33 UTC. Time now 2017-May-26 22:38 UTC.
Position N 49°28' W 004°54'.
Warning: this ship's position is 11 days out of date.

Length 185 m; draft 8.7 m.

Type: Cargo ship. MMSI: 212372000.

Date/timePositionNaut miles runAvg speedWind from/ knotsBaromVisibWave heightAir tempDewpointWater temp
2017-May-15 04:33N 49°28' W 004°54'010.8
2017-May-15 04:30N 49°28' W 004°54'5812.8
2017-May-15 00:00N 49°51' W 003°32'612.9
2017-May-14 23:30N 49°53' W 003°23'612.7
2017-May-14 23:00N 49°56' W 003°14'612.3
2017-May-14 22:30N 49°58' W 003°05'611.8
2017-May-14 22:00N 50°01' W 002°57'611.6
2017-May-14 21:30N 50°02' W 002°48'5813.1
2017-May-14 17:05N 50°18' W 001°21'115.8
2017-May-14 17:00N 50°18' W 001°19'816.1
2017-May-14 16:31N 50°20' W 001°07'1016.0
2017-May-14 15:51N 50°23' W 000°52'715.1
2017-May-14 15:24N 50°25' W 000°41'614.7
2017-May-14 15:00N 50°26' W 000°32'714.5
2017-May-14 14:31N 50°28' W 000°21'1413.6
2017-May-14 13:30N 50°32' W 000°01'612.8
2017-May-14 13:00N 50°33' E 000°09'612.2
2017-May-14 12:30N 50°35' E 000°18'711.7
2017-May-14 11:56N 50°37' E 000°28'511.3
2017-May-14 11:30N 50°39' E 000°35'611.6
2017-May-14 11:00N 50°42' E 000°43'611.7
2017-May-14 10:30N 50°46' E 000°50'612.3
2017-May-14 10:00N 50°49' E 000°58'713.4
2017-May-14 09:30N 50°53' E 001°07'714.2
2017-May-14 09:00N 50°58' E 001°16'815.1
2017-May-14 08:31N 51°02' E 001°25'815.0
2017-May-14 08:00N 51°07' E 001°34'714.3
2017-May-14 07:30N 51°12' E 001°43'713.2
2017-May-14 07:00N 51°17' E 001°49'613.0
2017-May-14 06:30N 51°23' E 001°53'612.1
2017-May-14 06:00N 51°28' E 001°59'612.2
2017-May-14 05:30N 51°32' E 002°06'611.8
2017-May-14 05:00N 51°36' E 002°13'611.7
2017-May-14 04:30N 51°40' E 002°19'611.2
2017-May-14 04:00N 51°45' E 002°24'611.4
2017-May-14 03:30N 51°50' E 002°29'6013.0
2017-May-13 22:54N 52°45' E 003°07'614.3
2017-May-13 22:30N 52°50' E 003°11'714.3
2017-May-13 22:00N 52°57' E 003°16'714.2
2017-May-13 21:29N 53°04' E 003°20'10212.8
2017-May-13 13:30N 54°28' E 004°58'713.4
2017-May-13 12:59N 54°33' E 005°06'713.3
2017-May-13 12:29N 54°38' E 005°13'613.2
2017-May-13 12:00N 54°43' E 005°21'713.1
2017-May-13 11:29N 54°48' E 005°28'712.9
2017-May-13 10:55N 54°54' E 005°36'21612.5
2017-May-12 17:37N 57°46' E 009°33'213.6
2017-May-12 17:28N 57°46' E 009°37'613.8
2017-May-12 17:00N 57°47' E 009°49'714.2
2017-May-12 16:30N 57°48' E 010°02'714.0
2017-May-12 15:59N 57°48' E 010°16'714.0
2017-May-12 15:30N 57°49' E 010°28'713.6
2017-May-12 15:00N 57°48' E 010°41'611.4
2017-May-12 14:28N 57°45' E 010°51'6 6.4
2017-May-12 13:29N 57°41' E 010°59'612.8
2017-May-12 13:00N 57°37' E 011°08'713.7
2017-May-12 12:30N 57°33' E 011°19'713.4
2017-May-12 12:00N 57°28' E 011°26'713.9
2017-May-12 11:30N 57°21' E 011°30'714.0
2017-May-12 11:00N 57°14' E 011°35'713.9
2017-May-12 10:30N 57°08' E 011°39'713.6
2017-May-12 10:00N 57°02' E 011°43'11411.9
2017-May-12 00:25N 55°10' E 011°03'511.2
2017-May-12 00:00N 55°05' E 011°03'812.3
2017-May-11 23:23N 54°58' E 010°59'512.8
2017-May-11 23:00N 54°54' E 010°54'713.3
2017-May-11 22:30N 54°47' E 010°52'612.6
2017-May-11 22:00N 54°41' E 010°55'713.7
2017-May-11 21:30N 54°38' E 011°05'713.9
2017-May-11 21:00N 54°35' E 011°16'713.8
2017-May-11 20:30N 54°32' E 011°27'713.5
2017-May-11 20:00N 54°29' E 011°37'1613.1
2017-May-11 18:46N 54°26' E 012°05'413.4
2017-May-11 18:30N 54°28' E 012°10'713.0
2017-May-11 18:00N 54°34' E 012°14'2713.0
2017-May-11 15:57N 54°50' E 012°52'1413.4
2017-May-11 14:57N 54°54' E 013°14'1213.3
2017-May-11 14:00N 54°58' E 013°35'713.2
2017-May-11 13:30N 55°01' E 013°45'613.0
2017-May-11 13:00N 55°03' E 013°56'612.6
2017-May-11 12:29N 55°05' E 014°06'613.0
2017-May-11 12:00N 55°10' E 014°13'613.0
2017-May-11 11:30N 55°16' E 014°20'713.0
2017-May-11 11:00N 55°21' E 014°27'713.2
2017-May-11 10:30N 55°26' E 014°34'612.9
2017-May-11 10:00N 55°29' E 014°44'713.1
2017-May-11 09:30N 55°32' E 014°54'612.7
2017-May-11 09:00N 55°35' E 015°04'612.6
2017-May-11 08:30N 55°38' E 015°14'612.8
2017-May-11 08:00N 55°41' E 015°23'612.9
2017-May-11 07:30N 55°45' E 015°33'713.0
2017-May-11 07:00N 55°48' E 015°43'713.1
2017-May-11 06:30N 55°51' E 015°53'612.9
2017-May-11 06:00N 55°55' E 016°03'612.8
2017-May-11 05:30N 55°58' E 016°13'713.0
2017-May-11 05:00N 56°01' E 016°23'713.0
2017-May-11 04:30N 56°05' E 016°33'613.0
2017-May-11 04:00N 56°08' E 016°43'612.8
2017-May-11 03:30N 56°12' E 016°52'712.9
2017-May-11 03:00N 56°16' E 017°01'26713.0
2017-May-10 06:28N 59°33' E 022°41'612.9
2017-May-10 05:58N 59°34' E 022°53'613.0
2017-May-10 05:30N 59°36' E 023°05'713.0
2017-May-10 05:00N 59°38' E 023°17'713.2
2017-May-10 04:30N 59°40' E 023°30'713.3
2017-May-10 04:00N 59°41' E 023°42'713.4
2017-May-10 03:30N 59°43' E 023°55'713.4
2017-May-10 03:00N 59°45' E 024°08'4213.3
2017-May-09 23:49N 59°54' E 025°30'413.4
2017-May-09 23:29N 59°55' E 025°39'913.2
2017-May-09 22:50N 59°57' E 025°56'713.0
2017-May-09 22:19N 59°58' E 026°09'913.2
2017-May-09 21:38N 60°00' E 026°26'213.1
2017-May-09 21:30N 60°01' E 026°30'612.7
2017-May-09 21:00N 60°01' E 026°42'912.9
2017-May-09 20:20N 59°59' E 026°60'1913.0
2017-May-09 18:53N 60°08' E 027°33'513.3
2017-May-09 18:30N 60°11' E 027°42'611.9
2017-May-09 18:00N 60°11' E 027°53'713.1
2017-May-09 17:28N 60°09' E 028°07'612.9
2017-May-09 17:00N 60°07' E 028°19'612.8
2017-May-09 16:30N 60°04' E 028°29'5 9.2
2017-May-09 16:00N 60°01' E 028°37'611.1
2017-May-09 15:30N 59°56' E 028°34'4 8.8
2017-May-09 15:00N 59°52' E 028°29'1110.7
2017-May-09 14:00N 59°42' E 028°24'1 2.8
2017-May-09 13:28N 59°41' E 028°25'0 0.0
2017-May-09 12:58N 59°41' E 028°25'0 0.0
2017-May-09 12:28N 59°41' E 028°25'0 0.0
2017-May-09 11:58N 59°41' E 028°25'0 0.0
2017-May-09 11:28N 59°41' E 028°25'0 0.0
2017-May-09 10:58N 59°41' E 028°25'0 0.0
2017-May-09 10:28N 59°41' E 028°25'0 0.0
2017-May-09 09:58N 59°41' E 028°25'0 0.0
2017-May-09 09:28N 59°41' E 028°25'0 0.0
2017-May-09 08:58N 59°41' E 028°25'0 0.0
2017-May-09 08:19N 59°41' E 028°25'0 0.0
2017-May-09 07:49N 59°41' E 028°25'0 0.0
2017-May-09 07:19N 59°41' E 028°25'0 0.0
2017-May-09 06:52N 59°41' E 028°25'0 0.0
2017-May-09 06:22N 59°41' E 028°25'0 0.0
2017-May-09 05:49N 59°41' E 028°25'0 0.0
2017-May-09 05:22N 59°41' E 028°25'0 0.0
2017-May-09 04:52N 59°41' E 028°25'0 0.0
2017-May-09 04:25N 59°41' E 028°25'0 0.0
2017-May-09 03:55N 59°41' E 028°25'0 0.0
2017-May-09 03:25N 59°41' E 028°25'0 0.0
2017-May-09 02:55N 59°41' E 028°25'0 0.0
2017-May-09 02:25N 59°41' E 028°25'0 0.0
2017-May-09 01:55N 59°41' E 028°25'0 0.0
2017-May-09 01:28N 59°41' E 028°25'0 0.0
2017-May-09 00:58N 59°41' E 028°25'0 0.0
2017-May-09 00:28N 59°41' E 028°25'0 0.0
2017-May-08 23:58N 59°41' E 028°25'0 0.0
2017-May-08 23:28N 59°41' E 028°25'0 0.0
2017-May-08 22:58N 59°41' E 028°25'0 0.0
2017-May-08 22:28N 59°41' E 028°25'0 0.0
2017-May-08 21:58N 59°41' E 028°25'0 0.0
2017-May-08 21:28N 59°41' E 028°25'0 0.0
2017-May-08 20:58N 59°41' E 028°25'0 0.0
2017-May-08 20:28N 59°41' E 028°25'0 0.0
2017-May-08 19:58N 59°41' E 028°25'0 0.0
2017-May-08 19:28N 59°41' E 028°25'0 0.0
2017-May-08 18:58N 59°41' E 028°25'0 0.0
2017-May-08 18:28N 59°41' E 028°25'0 0.0
2017-May-08 17:49N 59°41' E 028°25'0 0.0
2017-May-08 17:19N 59°41' E 028°25'0 0.0
2017-May-08 16:52N 59°41' E 028°25'0 0.0
2017-May-08 16:22N 59°41' E 028°25'0 0.0
2017-May-08 15:52N 59°41' E 028°25'0 0.0
2017-May-08 15:22N 59°41' E 028°25'0 0.0
2017-May-08 14:52N 59°41' E 028°25'0 0.0
2017-May-08 13:55N 59°41' E 028°25'0 0.0
2017-May-08 13:25N 59°41' E 028°25'0 0.0
2017-May-08 12:55N 59°41' E 028°25'0 0.0
2017-May-08 12:25N 59°41' E 028°25'0 0.0
2017-May-08 11:52N 59°41' E 028°25'0 0.0
2017-May-08 11:25N 59°41' E 028°25'0 0.0
2017-May-08 10:58N 59°41' E 028°25'0 0.0
2017-May-08 10:28N 59°41' E 028°25'0 0.0
2017-May-08 09:55N 59°41' E 028°25'0 0.0
2017-May-08 09:28N 59°41' E 028°25'0 0.0
2017-May-08 08:58N 59°41' E 028°25'0 0.0
2017-May-08 08:28N 59°41' E 028°25'0 0.0
2017-May-08 07:58N 59°41' E 028°25'0 0.0
2017-May-08 07:28N 59°41' E 028°25'0 0.0
2017-May-08 06:58N 59°41' E 028°25'0 0.0
2017-May-08 06:28N 59°41' E 028°25'0 0.0
2017-May-08 05:58N 59°41' E 028°25'0 0.0
2017-May-08 05:28N 59°41' E 028°25'0 0.0
2017-May-08 04:58N 59°41' E 028°25'0 0.0
2017-May-08 04:28N 59°41' E 028°25'0 0.0
2017-May-08 03:49N 59°41' E 028°25'0 0.0
2017-May-08 03:19N 59°41' E 028°25'0 0.0
2017-May-08 02:49N 59°41' E 028°25'0 0.0
2017-May-08 02:22N 59°41' E 028°25'0 0.0
2017-May-08 01:52N 59°41' E 028°25'0 0.0
2017-May-08 01:22N 59°41' E 028°25'0 0.0
2017-May-08 00:52N 59°41' E 028°25'0 0.0
2017-May-08 00:22N 59°41' E 028°25'0 0.0
2017-May-07 23:52N 59°41' E 028°25'0 0.0
2017-May-07 23:25N 59°41' E 028°25'0 0.0
2017-May-07 22:55N 59°41' E 028°25'0 0.0
2017-May-07 22:25N 59°41' E 028°25'0 0.0
2017-May-07 21:40N 59°41' E 028°25'0 0.0
2017-May-07 21:25N 59°41' E 028°25'0 0.0
2017-May-07 20:58N 59°41' E 028°25'0 0.0
2017-May-07 20:28N 59°41' E 028°25'0 0.0
2017-May-07 19:58N 59°41' E 028°25'0 0.0
2017-May-07 19:28N 59°41' E 028°25'0 0.0
2017-May-07 18:58N 59°41' E 028°25'0 0.0
2017-May-07 18:28N 59°41' E 028°25'0 0.0
2017-May-07 17:58N 59°41' E 028°25'0 0.0
2017-May-07 17:28N 59°41' E 028°25'0 0.0
2017-May-07 16:58N 59°41' E 028°25'0 0.0
2017-May-07 16:28N 59°41' E 028°25'0 0.0
2017-May-07 15:58N 59°41' E 028°25'0 0.0
2017-May-07 15:28N 59°41' E 028°25'0 0.0
2017-May-07 14:58N 59°41' E 028°25'0 0.0
2017-May-07 13:58N 59°41' E 028°25'0 0.0
2017-May-07 13:16N 59°41' E 028°25'0 0.0
2017-May-07 12:49N 59°41' E 028°25'0 0.0
2017-May-07 12:22N 59°41' E 028°25'0 0.0
2017-May-07 11:52N 59°41' E 028°25'0 0.0
2017-May-07 11:22N 59°41' E 028°25'0 0.0
2017-May-07 10:49N 59°41' E 028°25'0 0.0
2017-May-07 10:22N 59°41' E 028°25'0 0.0
2017-May-07 09:52N 59°41' E 028°25'0 0.0
2017-May-07 09:25N 59°41' E 028°25'0 0.0
2017-May-07 08:55N 59°41' E 028°25'0 0.0
2017-May-07 08:25N 59°41' E 028°25'0 0.0
2017-May-07 07:40N 59°41' E 028°25'0 0.0
2017-May-07 07:25N 59°41' E 028°25'0 0.0
2017-May-07 06:55N 59°41' E 028°25'0 0.0
2017-May-07 06:28N 59°41' E 028°25'0 0.0
2017-May-07 05:58N 59°41' E 028°25'0 0.0
2017-May-07 05:28N 59°41' E 028°25'0 0.0
2017-May-07 04:58N 59°41' E 028°25'0 0.0
2017-May-07 04:28N 59°41' E 028°25'0 0.0
2017-May-07 03:58N 59°41' E 028°25'0 0.0
2017-May-07 03:28N 59°41' E 028°25'0 0.0
2017-May-07 02:58N 59°41' E 028°25'0 0.0
2017-May-07 02:28N 59°41' E 028°25'0 0.0
2017-May-07 01:58N 59°41' E 028°25'0 0.0
2017-May-07 01:28N 59°41' E 028°25'0 0.0
2017-May-07 00:58N 59°41' E 028°25'0 0.0
2017-May-07 00:28N 59°41' E 028°25'0 0.0
2017-May-06 23:58N 59°41' E 028°25'0 0.0
2017-May-06 23:19N 59°41' E 028°25'0 0.0
2017-May-06 22:49N 59°41' E 028°25'0 0.0
2017-May-06 22:19N 59°41' E 028°25'0 0.0
2017-May-06 21:52N 59°41' E 028°25'0 0.0
2017-May-06 21:22N 59°41' E 028°25'0 0.0
2017-May-06 20:52N 59°41' E 028°25'0 0.0
2017-May-06 20:22N 59°41' E 028°25'0 0.0
2017-May-06 19:52N 59°41' E 028°25'0 0.0
2017-May-06 19:22N 59°41' E 028°25'0 0.0
2017-May-06 18:55N 59°41' E 028°25'0 0.0
2017-May-06 18:25N 59°41' E 028°25'0 0.0
2017-May-06 17:55N 59°41' E 028°25'0 0.0
2017-May-06 17:25N 59°41' E 028°25'0 0.0
2017-May-06 16:55N 59°41' E 028°25'0 0.0
2017-May-06 16:28N 59°41' E 028°25'0 0.0
2017-May-06 15:58N 59°41' E 028°25'0 0.0
2017-May-06 15:28N 59°41' E 028°25'0 0.0
2017-May-06 14:58N 59°41' E 028°25'0 0.0
2017-May-06 13:58N 59°41' E 028°25'0 0.0
2017-May-06 13:28N 59°41' E 028°25'0 0.0
2017-May-06 12:58N 59°41' E 028°25'0 0.0
2017-May-06 12:28N 59°41' E 028°25'0 0.0
2017-May-06 11:58N 59°41' E 028°25'0 0.0
2017-May-06 11:28N 59°41' E 028°25'0 0.0
2017-May-06 10:58N 59°41' E 028°25'0 0.0
2017-May-06 10:28N 59°41' E 028°25'0 0.0
2017-May-06 09:58N 59°41' E 028°25'0 0.0
2017-May-06 09:28N 59°41' E 028°25'0 0.0
2017-May-06 08:49N 59°41' E 028°25'0 0.0
2017-May-06 08:19N 59°41' E 028°25'0 0.0
2017-May-06 07:49N 59°41' E 028°25'0 0.0
2017-May-06 07:22N 59°41' E 028°25'0 0.0
2017-May-06 06:52N 59°41' E 028°25'0 0.0
2017-May-06 06:22N 59°41' E 028°25'0 0.0
2017-May-06 05:52N 59°41' E 028°25'0 0.0
2017-May-06 05:22N 59°41' E 028°25'0 0.0
2017-May-06 04:55N 59°41' E 028°25'0 0.0
2017-May-06 04:25N 59°41' E 028°25'0 0.0
2017-May-06 03:55N 59°41' E 028°25'0 0.0
2017-May-06 03:25N 59°41' E 028°25'0 0.0
2017-May-06 02:55N 59°41' E 028°25'0 0.0
2017-May-06 02:25N 59°41' E 028°25'0 0.0
2017-May-06 01:58N 59°41' E 028°25'0 0.0
2017-May-06 01:28N 59°41' E 028°25'0 0.0
2017-May-06 00:58N 59°41' E 028°25'0 0.0
2017-May-06 00:28N 59°41' E 028°25'0 0.0
2017-May-05 23:58N 59°41' E 028°25'0 0.0
2017-May-05 23:28N 59°41' E 028°25'0 0.0
2017-May-05 22:58N 59°41' E 028°25'0 0.0
2017-May-05 22:28N 59°41' E 028°25'0 0.0
2017-May-05 21:58N 59°41' E 028°25'0 0.0
2017-May-05 21:28N 59°41' E 028°25'0 0.0
2017-May-05 20:58N 59°41' E 028°25'0 0.0
2017-May-05 20:28N 59°41' E 028°25'0 0.0
2017-May-05 19:58N 59°41' E 028°25'0 0.0
2017-May-05 19:28N 59°41' E 028°25'0 0.0
2017-May-05 18:49N 59°41' E 028°25'0 0.0
2017-May-05 18:19N 59°41' E 028°25'0 0.0
2017-May-05 17:49N 59°41' E 028°25'0 0.0
2017-May-05 17:22N 59°41' E 028°25'0 0.0
2017-May-05 16:52N 59°41' E 028°25'0 0.0
2017-May-05 16:22N 59°41' E 028°25'0 0.0
2017-May-05 15:52N 59°41' E 028°25'0 0.0
2017-May-05 15:22N 59°41' E 028°25'0 0.0
2017-May-05 14:52N 59°41' E 028°25'0 0.0
2017-May-05 13:55N 59°41' E 028°25'0 0.0
2017-May-05 13:25N 59°41' E 028°25'0 0.0
2017-May-05 12:55N 59°41' E 028°25'0 0.0
2017-May-05 12:25N 59°41' E 028°25'0 0.0
2017-May-05 11:55N 59°41' E 028°25'0 0.0
2017-May-05 11:28N 59°41' E 028°25'0 0.0
2017-May-05 10:58N 59°41' E 028°25'0 0.0
2017-May-05 10:28N 59°41' E 028°25'0 0.0
2017-May-05 09:58N 59°41' E 028°25'0 0.0
2017-May-05 09:28N 59°41' E 028°25'0 0.0
2017-May-05 08:58N 59°41' E 028°25'0 0.0
2017-May-05 08:28N 59°41' E 028°25'0 0.0
2017-May-05 07:58N 59°41' E 028°25'0 0.0
2017-May-05 07:28N 59°41' E 028°25'0 0.0
2017-May-05 06:58N 59°41' E 028°25'0 0.0
2017-May-05 06:28N 59°41' E 028°25'0 0.0
2017-May-05 05:58N 59°41' E 028°25'0 0.0
2017-May-05 05:28N 59°41' E 028°25'0 0.0
2017-May-05 04:58N 59°41' E 028°25'  
Track history (hours):
 
Tides and Currents Weather Stations Pressure Air Temp Water Temp Dewpoint Dewpoint Depression Visibility Wind Speed Wind Dir Waves Ship Positions

Brant

Last reported at 2017-May-15 04:33 UTC. Time now 2017-May-26 22:38 UTC.
Position N 49°28' W 004°54'.
Warning: this ship's position is 11 days out of date.

Length 185 m; draft 8.7 m.

Type: Cargo ship. MMSI: 212372000.

Date/timePositionNaut miles runAvg speedWind from/ knotsBaromVisibWave heightAir tempDewpointWater temp
2017-May-15 04:33N 49°28' W 004°54'010.8
2017-May-15 04:30N 49°28' W 004°54'5812.8
2017-May-15 00:00N 49°51' W 003°32'612.9
2017-May-14 23:30N 49°53' W 003°23'612.7
2017-May-14 23:00N 49°56' W 003°14'612.3
2017-May-14 22:30N 49°58' W 003°05'611.8
2017-May-14 22:00N 50°01' W 002°57'611.6
2017-May-14 21:30N 50°02' W 002°48'5813.1
2017-May-14 17:05N 50°18' W 001°21'115.8
2017-May-14 17:00N 50°18' W 001°19'816.1
2017-May-14 16:31N 50°20' W 001°07'1016.0
2017-May-14 15:51N 50°23' W 000°52'715.1
2017-May-14 15:24N 50°25' W 000°41'614.7
2017-May-14 15:00N 50°26' W 000°32'714.5
2017-May-14 14:31N 50°28' W 000°21'1413.6
2017-May-14 13:30N 50°32' W 000°01'612.8
2017-May-14 13:00N 50°33' E 000°09'612.2
2017-May-14 12:30N 50°35' E 000°18'711.7
2017-May-14 11:56N 50°37' E 000°28'511.3
2017-May-14 11:30N 50°39' E 000°35'611.6
2017-May-14 11:00N 50°42' E 000°43'611.7
2017-May-14 10:30N 50°46' E 000°50'612.3
2017-May-14 10:00N 50°49' E 000°58'713.4
2017-May-14 09:30N 50°53' E 001°07'714.2
2017-May-14 09:00N 50°58' E 001°16'815.1
2017-May-14 08:31N 51°02' E 001°25'815.0
2017-May-14 08:00N 51°07' E 001°34'714.3
2017-May-14 07:30N 51°12' E 001°43'713.2
2017-May-14 07:00N 51°17' E 001°49'613.0
2017-May-14 06:30N 51°23' E 001°53'612.1
2017-May-14 06:00N 51°28' E 001°59'612.2
2017-May-14 05:30N 51°32' E 002°06'611.8
2017-May-14 05:00N 51°36' E 002°13'611.7
2017-May-14 04:30N 51°40' E 002°19'611.2
2017-May-14 04:00N 51°45' E 002°24'611.4
2017-May-14 03:30N 51°50' E 002°29'6013.0
2017-May-13 22:54N 52°45' E 003°07'614.3
2017-May-13 22:30N 52°50' E 003°11'714.3
2017-May-13 22:00N 52°57' E 003°16'714.2
2017-May-13 21:29N 53°04' E 003°20'10212.8
2017-May-13 13:30N 54°28' E 004°58'713.4
2017-May-13 12:59N 54°33' E 005°06'713.3
2017-May-13 12:29N 54°38' E 005°13'613.2
2017-May-13 12:00N 54°43' E 005°21'713.1
2017-May-13 11:29N 54°48' E 005°28'712.9
2017-May-13 10:55N 54°54' E 005°36'21612.5
2017-May-12 17:37N 57°46' E 009°33'213.6
2017-May-12 17:28N 57°46' E 009°37'613.8
2017-May-12 17:00N 57°47' E 009°49'714.2
2017-May-12 16:30N 57°48' E 010°02'714.0
2017-May-12 15:59N 57°48' E 010°16'714.0
2017-May-12 15:30N 57°49' E 010°28'713.6
2017-May-12 15:00N 57°48' E 010°41'611.4
2017-May-12 14:28N 57°45' E 010°51'6 6.4
2017-May-12 13:29N 57°41' E 010°59'612.8
2017-May-12 13:00N 57°37' E 011°08'713.7
2017-May-12 12:30N 57°33' E 011°19'713.4
2017-May-12 12:00N 57°28' E 011°26'713.9
2017-May-12 11:30N 57°21' E 011°30'714.0
2017-May-12 11:00N 57°14' E 011°35'713.9
2017-May-12 10:30N 57°08' E 011°39'713.6
2017-May-12 10:00N 57°02' E 011°43'11411.9
2017-May-12 00:25N 55°10' E 011°03'511.2
2017-May-12 00:00N 55°05' E 011°03'812.3
2017-May-11 23:23N 54°58' E 010°59'512.8
2017-May-11 23:00N 54°54' E 010°54'713.3
2017-May-11 22:30N 54°47' E 010°52'612.6
2017-May-11 22:00N 54°41' E 010°55'713.7
2017-May-11 21:30N 54°38' E 011°05'713.9
2017-May-11 21:00N 54°35' E 011°16'713.8
2017-May-11 20:30N 54°32' E 011°27'713.5
2017-May-11 20:00N 54°29' E 011°37'1613.1
2017-May-11 18:46N 54°26' E 012°05'413.4
2017-May-11 18:30N 54°28' E 012°10'713.0
2017-May-11 18:00N 54°34' E 012°14'2713.0
2017-May-11 15:57N 54°50' E 012°52'1413.4
2017-May-11 14:57N 54°54' E 013°14'1213.3
2017-May-11 14:00N 54°58' E 013°35'713.2
2017-May-11 13:30N 55°01' E 013°45'613.0
2017-May-11 13:00N 55°03' E 013°56'612.6
2017-May-11 12:29N 55°05' E 014°06'613.0
2017-May-11 12:00N 55°10' E 014°13'613.0
2017-May-11 11:30N 55°16' E 014°20'713.0
2017-May-11 11:00N 55°21' E 014°27'713.2
2017-May-11 10:30N 55°26' E 014°34'612.9
2017-May-11 10:00N 55°29' E 014°44'713.1
2017-May-11 09:30N 55°32' E 014°54'612.7
2017-May-11 09:00N 55°35' E 015°04'612.6
2017-May-11 08:30N 55°38' E 015°14'612.8
2017-May-11 08:00N 55°41' E 015°23'612.9
2017-May-11 07:30N 55°45' E 015°33'713.0
2017-May-11 07:00N 55°48' E 015°43'713.1
2017-May-11 06:30N 55°51' E 015°53'612.9
2017-May-11 06:00N 55°55' E 016°03'612.8
2017-May-11 05:30N 55°58' E 016°13'713.0
2017-May-11 05:00N 56°01' E 016°23'713.0
2017-May-11 04:30N 56°05' E 016°33'613.0
2017-May-11 04:00N 56°08' E 016°43'612.8
2017-May-11 03:30N 56°12' E 016°52'712.9
2017-May-11 03:00N 56°16' E 017°01'26713.0
2017-May-10 06:28N 59°33' E 022°41'612.9
2017-May-10 05:58N 59°34' E 022°53'613.0
2017-May-10 05:30N 59°36' E 023°05'713.0
2017-May-10 05:00N 59°38' E 023°17'713.2
2017-May-10 04:30N 59°40' E 023°30'713.3
2017-May-10 04:00N 59°41' E 023°42'713.4
2017-May-10 03:30N 59°43' E 023°55'713.4
2017-May-10 03:00N 59°45' E 024°08'4213.3
2017-May-09 23:49N 59°54' E 025°30'413.4
2017-May-09 23:29N 59°55' E 025°39'913.2
2017-May-09 22:50N 59°57' E 025°56'713.0
2017-May-09 22:19N 59°58' E 026°09'913.2
2017-May-09 21:38N 60°00' E 026°26'213.1
2017-May-09 21:30N 60°01' E 026°30'612.7
2017-May-09 21:00N 60°01' E 026°42'912.9
2017-May-09 20:20N 59°59' E 026°60'1913.0
2017-May-09 18:53N 60°08' E 027°33'513.3
2017-May-09 18:30N 60°11' E 027°42'611.9
2017-May-09 18:00N 60°11' E 027°53'713.1
2017-May-09 17:28N 60°09' E 028°07'612.9
2017-May-09 17:00N 60°07' E 028°19'612.8
2017-May-09 16:30N 60°04' E 028°29'5 9.2
2017-May-09 16:00N 60°01' E 028°37'611.1
2017-May-09 15:30N 59°56' E 028°34'4 8.8
2017-May-09 15:00N 59°52' E 028°29'1110.7
2017-May-09 14:00N 59°42' E 028°24'1 2.8
2017-May-09 13:28N 59°41' E 028°25'0 0.0
2017-May-09 12:58N 59°41' E 028°25'0 0.0
2017-May-09 12:28N 59°41' E 028°25'0 0.0
2017-May-09 11:58N 59°41' E 028°25'0 0.0
2017-May-09 11:28N 59°41' E 028°25'0 0.0
2017-May-09 10:58N 59°41' E 028°25'0 0.0
2017-May-09 10:28N 59°41' E 028°25'0 0.0
2017-May-09 09:58N 59°41' E 028°25'0 0.0
2017-May-09 09:28N 59°41' E 028°25'0 0.0
2017-May-09 08:58N 59°41' E 028°25'0 0.0
2017-May-09 08:19N 59°41' E 028°25'0 0.0
2017-May-09 07:49N 59°41' E 028°25'0 0.0
2017-May-09 07:19N 59°41' E 028°25'0 0.0
2017-May-09 06:52N 59°41' E 028°25'0 0.0
2017-May-09 06:22N 59°41' E 028°25'0 0.0
2017-May-09 05:49N 59°41' E 028°25'0 0.0
2017-May-09 05:22N 59°41' E 028°25'0 0.0
2017-May-09 04:52N 59°41' E 028°25'0 0.0
2017-May-09 04:25N 59°41' E 028°25'0 0.0
2017-May-09 03:55N 59°41' E 028°25'0 0.0
2017-May-09 03:25N 59°41' E 028°25'0 0.0
2017-May-09 02:55N 59°41' E 028°25'0 0.0
2017-May-09 02:25N 59°41' E 028°25'0 0.0
2017-May-09 01:55N 59°41' E 028°25'0 0.0
2017-May-09 01:28N 59°41' E 028°25'0 0.0
2017-May-09 00:58N 59°41' E 028°25'0 0.0
2017-May-09 00:28N 59°41' E 028°25'0 0.0
2017-May-08 23:58N 59°41' E 028°25'0 0.0
2017-May-08 23:28N 59°41' E 028°25'0 0.0
2017-May-08 22:58N 59°41' E 028°25'0 0.0
2017-May-08 22:28N 59°41' E 028°25'0 0.0
2017-May-08 21:58N 59°41' E 028°25'0 0.0
2017-May-08 21:28N 59°41' E 028°25'0 0.0
2017-May-08 20:58N 59°41' E 028°25'0 0.0
2017-May-08 20:28N 59°41' E 028°25'0 0.0
2017-May-08 19:58N 59°41' E 028°25'0 0.0
2017-May-08 19:28N 59°41' E 028°25'0 0.0
2017-May-08 18:58N 59°41' E 028°25'0 0.0
2017-May-08 18:28N 59°41' E 028°25'0 0.0
2017-May-08 17:49N 59°41' E 028°25'0 0.0
2017-May-08 17:19N 59°41' E 028°25'0 0.0
2017-May-08 16:52N 59°41' E 028°25'0 0.0
2017-May-08 16:22N 59°41' E 028°25'0 0.0
2017-May-08 15:52N 59°41' E 028°25'0 0.0
2017-May-08 15:22N 59°41' E 028°25'0 0.0
2017-May-08 14:52N 59°41' E 028°25'0 0.0
2017-May-08 13:55N 59°41' E 028°25'0 0.0
2017-May-08 13:25N 59°41' E 028°25'0 0.0
2017-May-08 12:55N 59°41' E 028°25'0 0.0
2017-May-08 12:25N 59°41' E 028°25'0 0.0
2017-May-08 11:52N 59°41' E 028°25'0 0.0
2017-May-08 11:25N 59°41' E 028°25'0 0.0
2017-May-08 10:58N 59°41' E 028°25'0 0.0
2017-May-08 10:28N 59°41' E 028°25'0 0.0
2017-May-08 09:55N 59°41' E 028°25'0 0.0
2017-May-08 09:28N 59°41' E 028°25'0 0.0
2017-May-08 08:58N 59°41' E 028°25'0 0.0
2017-May-08 08:28N 59°41' E 028°25'0 0.0
2017-May-08 07:58N 59°41' E 028°25'0 0.0
2017-May-08 07:28N 59°41' E 028°25'0 0.0
2017-May-08 06:58N 59°41' E 028°25'0 0.0
2017-May-08 06:28N 59°41' E 028°25'0 0.0
2017-May-08 05:58N 59°41' E 028°25'0 0.0
2017-May-08 05:28N 59°41' E 028°25'0 0.0
2017-May-08 04:58N 59°41' E 028°25'0 0.0
2017-May-08 04:28N 59°41' E 028°25'0 0.0
2017-May-08 03:49N 59°41' E 028°25'0 0.0
2017-May-08 03:19N 59°41' E 028°25'0 0.0
2017-May-08 02:49N 59°41' E 028°25'0 0.0
2017-May-08 02:22N 59°41' E 028°25'0 0.0
2017-May-08 01:52N 59°41' E 028°25'0 0.0
2017-May-08 01:22N 59°41' E 028°25'0 0.0
2017-May-08 00:52N 59°41' E 028°25'0 0.0
2017-May-08 00:22N 59°41' E 028°25'0 0.0
2017-May-07 23:52N 59°41' E 028°25'0 0.0
2017-May-07 23:25N 59°41' E 028°25'0 0.0
2017-May-07 22:55N 59°41' E 028°25'0 0.0
2017-May-07 22:25N 59°41' E 028°25'0 0.0
2017-May-07 21:40N 59°41' E 028°25'0 0.0
2017-May-07 21:25N 59°41' E 028°25'0 0.0
2017-May-07 20:58N 59°41' E 028°25'0 0.0
2017-May-07 20:28N 59°41' E 028°25'0 0.0
2017-May-07 19:58N 59°41' E 028°25'0 0.0
2017-May-07 19:28N 59°41' E 028°25'0 0.0
2017-May-07 18:58N 59°41' E 028°25'0 0.0
2017-May-07 18:28N 59°41' E 028°25'0 0.0
2017-May-07 17:58N 59°41' E 028°25'0 0.0
2017-May-07 17:28N 59°41' E 028°25'0 0.0
2017-May-07 16:58N 59°41' E 028°25'0 0.0
2017-May-07 16:28N 59°41' E 028°25'0 0.0
2017-May-07 15:58N 59°41' E 028°25'0 0.0
2017-May-07 15:28N 59°41' E 028°25'0 0.0
2017-May-07 14:58N 59°41' E 028°25'0 0.0
2017-May-07 13:58N 59°41' E 028°25'0 0.0
2017-May-07 13:16N 59°41' E 028°25'0 0.0
2017-May-07 12:49N 59°41' E 028°25'0 0.0
2017-May-07 12:22N 59°41' E 028°25'0 0.0
2017-May-07 11:52N 59°41' E 028°25'0 0.0
2017-May-07 11:22N 59°41' E 028°25'0 0.0
2017-May-07 10:49N 59°41' E 028°25'0 0.0
2017-May-07 10:22N 59°41' E 028°25'0 0.0
2017-May-07 09:52N 59°41' E 028°25'0 0.0
2017-May-07 09:25N 59°41' E 028°25'0 0.0
2017-May-07 08:55N 59°41' E 028°25'0 0.0
2017-May-07 08:25N 59°41' E 028°25'0 0.0
2017-May-07 07:40N 59°41' E 028°25'0 0.0
2017-May-07 07:25N 59°41' E 028°25'0 0.0
2017-May-07 06:55N 59°41' E 028°25'0 0.0
2017-May-07 06:28N 59°41' E 028°25'0 0.0
2017-May-07 05:58N 59°41' E 028°25'0 0.0
2017-May-07 05:28N 59°41' E 028°25'0 0.0
2017-May-07 04:58N 59°41' E 028°25'0 0.0
2017-May-07 04:28N 59°41' E 028°25'0 0.0
2017-May-07 03:58N 59°41' E 028°25'0 0.0
2017-May-07 03:28N 59°41' E 028°25'0 0.0
2017-May-07 02:58N 59°41' E 028°25'0 0.0
2017-May-07 02:28N 59°41' E 028°25'0 0.0
2017-May-07 01:58N 59°41' E 028°25'0 0.0
2017-May-07 01:28N 59°41' E 028°25'0 0.0
2017-May-07 00:58N 59°41' E 028°25'0 0.0
2017-May-07 00:28N 59°41' E 028°25'0 0.0
2017-May-06 23:58N 59°41' E 028°25'0 0.0
2017-May-06 23:19N 59°41' E 028°25'0 0.0
2017-May-06 22:49N 59°41' E 028°25'0 0.0
2017-May-06 22:19N 59°41' E 028°25'0 0.0
2017-May-06 21:52N 59°41' E 028°25'0 0.0
2017-May-06 21:22N 59°41' E 028°25'0 0.0
2017-May-06 20:52N 59°41' E 028°25'0 0.0
2017-May-06 20:22N 59°41' E 028°25'0 0.0
2017-May-06 19:52N 59°41' E 028°25'0 0.0
2017-May-06 19:22N 59°41' E 028°25'0 0.0
2017-May-06 18:55N 59°41' E 028°25'0 0.0
2017-May-06 18:25N 59°41' E 028°25'0 0.0
2017-May-06 17:55N 59°41' E 028°25'0 0.0
2017-May-06 17:25N 59°41' E 028°25'0 0.0
2017-May-06 16:55N 59°41' E 028°25'0 0.0
2017-May-06 16:28N 59°41' E 028°25'0 0.0
2017-May-06 15:58N 59°41' E 028°25'0 0.0
2017-May-06 15:28N 59°41' E 028°25'0 0.0
2017-May-06 14:58N 59°41' E 028°25'0 0.0
2017-May-06 13:58N 59°41' E 028°25'0 0.0
2017-May-06 13:28N 59°41' E 028°25'0 0.0
2017-May-06 12:58N 59°41' E 028°25'0 0.0
2017-May-06 12:28N 59°41' E 028°25'0 0.0
2017-May-06 11:58N 59°41' E 028°25'0 0.0
2017-May-06 11:28N 59°41' E 028°25'0 0.0
2017-May-06 10:58N 59°41' E 028°25'0 0.0
2017-May-06 10:28N 59°41' E 028°25'0 0.0
2017-May-06 09:58N 59°41' E 028°25'0 0.0
2017-May-06 09:28N 59°41' E 028°25'0 0.0
2017-May-06 08:49N 59°41' E 028°25'0 0.0
2017-May-06 08:19N 59°41' E 028°25'0 0.0
2017-May-06 07:49N 59°41' E 028°25'0 0.0
2017-May-06 07:22N 59°41' E 028°25'0 0.0
2017-May-06 06:52N 59°41' E 028°25'0 0.0
2017-May-06 06:22N 59°41' E 028°25'0 0.0
2017-May-06 05:52N 59°41' E 028°25'0 0.0
2017-May-06 05:22N 59°41' E 028°25'0 0.0
2017-May-06 04:55N 59°41' E 028°25'0 0.0
2017-May-06 04:25N 59°41' E 028°25'0 0.0
2017-May-06 03:55N 59°41' E 028°25'0 0.0
2017-May-06 03:25N 59°41' E 028°25'0 0.0
2017-May-06 02:55N 59°41' E 028°25'0 0.0
2017-May-06 02:25N 59°41' E 028°25'0 0.0
2017-May-06 01:58N 59°41' E 028°25'0 0.0
2017-May-06 01:28N 59°41' E 028°25'0 0.0
2017-May-06 00:58N 59°41' E 028°25'0 0.0
2017-May-06 00:28N 59°41' E 028°25'0 0.0
2017-May-05 23:58N 59°41' E 028°25'0 0.0
2017-May-05 23:28N 59°41' E 028°25'0 0.0
2017-May-05 22:58N 59°41' E 028°25'0 0.0
2017-May-05 22:28N 59°41' E 028°25'0 0.0
2017-May-05 21:58N 59°41' E 028°25'0 0.0
2017-May-05 21:28N 59°41' E 028°25'0 0.0
2017-May-05 20:58N 59°41' E 028°25'0 0.0
2017-May-05 20:28N 59°41' E 028°25'0 0.0
2017-May-05 19:58N 59°41' E 028°25'0 0.0
2017-May-05 19:28N 59°41' E 028°25'0 0.0
2017-May-05 18:49N 59°41' E 028°25'0 0.0
2017-May-05 18:19N 59°41' E 028°25'0 0.0
2017-May-05 17:49N 59°41' E 028°25'0 0.0
2017-May-05 17:22N 59°41' E 028°25'0 0.0
2017-May-05 16:52N 59°41' E 028°25'0 0.0
2017-May-05 16:22N 59°41' E 028°25'0 0.0
2017-May-05 15:52N 59°41' E 028°25'0 0.0
2017-May-05 15:22N 59°41' E 028°25'0 0.0
2017-May-05 14:52N 59°41' E 028°25'0 0.0
2017-May-05 13:55N 59°41' E 028°25'0 0.0
2017-May-05 13:25N 59°41' E 028°25'0 0.0
2017-May-05 12:55N 59°41' E 028°25'0 0.0
2017-May-05 12:25N 59°41' E 028°25'0 0.0
2017-May-05 11:55N 59°41' E 028°25'0 0.0
2017-May-05 11:28N 59°41' E 028°25'0 0.0
2017-May-05 10:58N 59°41' E 028°25'0 0.0
2017-May-05 10:28N 59°41' E 028°25'0 0.0
2017-May-05 09:58N 59°41' E 028°25'0 0.0
2017-May-05 09:28N 59°41' E 028°25'0 0.0
2017-May-05 08:58N 59°41' E 028°25'0 0.0
2017-May-05 08:28N 59°41' E 028°25'0 0.0
2017-May-05 07:58N 59°41' E 028°25'0 0.0
2017-May-05 07:28N 59°41' E 028°25'0 0.0
2017-May-05 06:58N 59°41' E 028°25'0 0.0
2017-May-05 06:28N 59°41' E 028°25'0 0.0
2017-May-05 05:58N 59°41' E 028°25'0 0.0
2017-May-05 05:28N 59°41' E 028°25'0 0.0
2017-May-05 04:58N 59°41' E 028°25'  

Dump ship's entire track history